Aviation Digital Data Service (ADDS)

Output produced by METARs form (0307 UTC 01 April 2015)
found at http://www.aviationweather.gov/adds/metars/
 
KCMI 312330Z 0100/0124 VRB04KT P6SM SKC 
     FM011400 17008KT P6SM SKC 
     FM011700 17013G23KT P6SM SKC